createdAt,value
2023-05-20T00:02:29.485Z,97
2023-05-20T00:08:39.896Z,97.5
2023-05-20T00:13:36.449Z,99.1
2023-05-20T00:18:33.112Z,100
2023-05-20T00:23:29.466Z,100
2023-05-20T00:29:40.253Z,100
2023-05-20T00:34:37.891Z,100
2023-05-20T00:39:33.186Z,100
2023-05-20T00:44:29.876Z,100
2023-05-20T00:50:40.439Z,100
2023-05-20T00:55:36.919Z,100
2023-05-20T01:00:33.488Z,100
2023-05-20T01:05:30.018Z,100
2023-05-20T01:11:40.624Z,100
2023-05-20T01:16:37.344Z,100
2023-05-20T01:21:33.704Z,100
2023-05-20T01:26:30.458Z,100
2023-05-20T01:32:40.941Z,100
2023-05-20T01:37:37.446Z,100
2023-05-20T01:42:33.965Z,100
2023-05-20T01:47:30.557Z,100
2023-05-20T01:53:41.244Z,100
2023-05-20T01:58:38.047Z,100
2023-05-20T02:03:34.230Z,100
2023-05-20T02:06:02.554Z,100
2023-05-20T02:14:41.493Z,100
2023-05-20T02:19:38.249Z,100
2023-05-20T02:24:34.503Z,100
2023-05-20T02:29:31.139Z,100
2023-05-20T02:35:41.682Z,100
2023-05-20T02:40:38.248Z,100
2023-05-20T02:45:34.868Z,100
2023-05-20T02:50:31.266Z,100
2023-05-20T02:56:42.006Z,100
2023-05-20T03:01:38.637Z,100
2023-05-20T03:06:35.170Z,100
2023-05-20T03:11:31.573Z,100
2023-05-20T03:17:42.257Z,100
2023-05-20T03:22:38.755Z,100
2023-05-20T03:27:35.404Z,100
2023-05-20T03:32:31.879Z,100
2023-05-20T03:38:42.983Z,100
2023-05-20T03:43:39.242Z,100
2023-05-20T03:48:35.582Z,100
2023-05-20T03:53:32.241Z,100
2023-05-20T03:58:28.687Z,100
2023-05-20T04:04:39.328Z,100
2023-05-20T04:09:35.815Z,100
2023-05-20T04:14:33.826Z,100
2023-05-20T04:19:29.117Z,100
2023-05-20T04:30:36.072Z,100
2023-05-20T04:35:32.856Z,100
2023-05-20T04:41:43.270Z,100
2023-05-20T04:46:39.867Z,100
2023-05-20T04:51:36.447Z,100
2023-05-20T04:56:32.928Z,100
2023-05-20T05:01:29.707Z,100
2023-05-20T05:07:40.162Z,100
2023-05-20T05:12:36.691Z,100
2023-05-20T05:17:33.286Z,100
2023-05-20T05:22:29.690Z,100
2023-05-20T05:28:40.513Z,100
2023-05-20T05:33:36.895Z,100
2023-05-20T05:38:33.475Z,100
2023-05-20T05:43:30.030Z,100
2023-05-20T05:49:40.637Z,100
2023-05-20T05:54:37.139Z,100
2023-05-20T05:59:33.712Z,98.4
2023-05-20T06:04:30.269Z,96.4
2023-05-20T06:10:40.896Z,95.2
2023-05-20T06:15:37.637Z,95.8
2023-05-20T06:20:33.965Z,97.8
2023-05-20T06:25:30.480Z,96.4
2023-05-20T06:31:41.132Z,93.2
2023-05-20T06:36:37.752Z,92.6
2023-05-20T06:41:34.232Z,91.3
2023-05-20T06:46:31.086Z,90.3
2023-05-20T06:52:41.406Z,88.8
2023-05-20T06:57:37.984Z,86.7
2023-05-20T07:02:34.670Z,86.3
2023-05-20T07:07:31.012Z,84.8
2023-05-20T07:13:41.672Z,85.6
2023-05-20T07:18:38.528Z,84
2023-05-20T07:23:34.757Z,80.7
2023-05-20T07:28:31.297Z,81.7
2023-05-20T07:34:41.985Z,79.5
2023-05-20T07:35:56.275Z,81.1
2023-05-20T07:39:38.563Z,79.4
2023-05-20T07:44:35.058Z,79.7
2023-05-20T07:49:31.559Z,80.1
2023-05-20T07:55:42.208Z,76.1
2023-05-20T08:00:38.789Z,72.8
2023-05-20T08:05:35.684Z,71
2023-05-20T08:10:32.104Z,73.6
2023-05-20T08:20:33.130Z,66.4
2023-05-20T08:25:29.867Z,64.9
2023-05-20T08:31:40.504Z,64
2023-05-20T08:36:36.832Z,62.3
2023-05-20T08:41:33.372Z,62.7
2023-05-20T08:52:40.533Z,63.3
2023-05-20T08:57:37.252Z,59.2
2023-05-20T09:02:33.829Z,58.2
2023-05-20T09:07:30.224Z,58.1
2023-05-20T09:13:40.833Z,59.2
2023-05-20T09:18:37.473Z,57.1
2023-05-20T09:23:33.902Z,56.9
2023-05-20T09:28:30.420Z,55.9
2023-05-20T09:34:41.065Z,56.3
2023-05-20T09:39:37.680Z,55.8
2023-05-20T09:44:34.198Z,54.7
2023-05-20T09:49:30.672Z,55.9
2023-05-20T09:55:41.338Z,57.4
2023-05-20T10:00:37.909Z,57.2
2023-05-20T10:05:34.940Z,55.8
2023-05-20T10:10:31.064Z,56.6
2023-05-20T10:16:41.606Z,55.8
2023-05-20T10:21:38.382Z,54.9
2023-05-20T10:26:34.684Z,54.3
2023-05-20T10:31:31.233Z,54.5
2023-05-20T10:37:41.986Z,54.5
2023-05-20T10:42:38.448Z,54.5
2023-05-20T10:47:35.042Z,53.7
2023-05-20T10:52:31.574Z,52.5
2023-05-20T10:58:42.165Z,53.4
2023-05-20T11:03:38.856Z,53.9
2023-05-20T11:08:35.204Z,52.9
2023-05-20T11:13:31.893Z,54.1
2023-05-20T11:18:28.396Z,54.9
2023-05-20T11:24:39.060Z,56.9
2023-05-20T11:29:35.585Z,58.1
2023-05-20T11:34:32.030Z,56.9
2023-05-20T11:39:28.626Z,56.5
2023-05-20T11:45:39.319Z,55.2
2023-05-20T11:50:35.994Z,56.7
2023-05-20T11:55:32.317Z,53.9
2023-05-20T12:00:31.338Z,53.2
2023-05-20T12:06:39.571Z,53.2
2023-05-20T12:11:36.046Z,51.6
2023-05-20T12:16:32.819Z,51.3
2023-05-20T12:21:29.239Z,50.7
2023-05-20T12:27:39.854Z,49.8
2023-05-20T12:32:36.335Z,54.4
2023-05-20T12:37:34.424Z,55.2
2023-05-20T12:42:29.406Z,55.9
2023-05-20T12:48:42.497Z,54.9
2023-05-20T12:58:33.331Z,49.1
2023-05-20T13:01:01.387Z,48.2
2023-05-20T13:03:29.696Z,46.4
2023-05-20T13:09:40.346Z,40.6
2023-05-20T13:14:37.040Z,40.6
2023-05-20T13:19:33.457Z,46.1
2023-05-20T13:30:40.765Z,40.4
2023-05-20T13:35:37.221Z,39
2023-05-20T13:40:33.840Z,41
2023-05-20T13:45:30.221Z,43.1
2023-05-20T13:51:40.927Z,39.9
2023-05-20T13:56:37.529Z,43.7
2023-05-20T14:01:34.099Z,41.1
2023-05-20T14:06:30.463Z,42.2
2023-05-20T14:12:41.125Z,45.5
2023-05-20T14:17:37.744Z,42.7
2023-05-20T14:22:34.192Z,46.1
2023-05-20T14:27:30.708Z,46.1
2023-05-20T14:33:41.404Z,47.1
2023-05-20T14:38:38.111Z,49.8
2023-05-20T14:43:34.515Z,39.5
2023-05-20T14:48:31.083Z,45.3
2023-05-20T14:54:41.744Z,39.9
2023-05-20T14:59:38.336Z,37.5
2023-05-20T15:04:34.712Z,41.6
2023-05-20T15:09:31.295Z,47.6
2023-05-20T15:15:42.112Z,52
2023-05-20T15:20:38.711Z,52.7
2023-05-20T15:25:35.136Z,50.7
2023-05-20T15:30:31.657Z,51.4
2023-05-20T15:36:42.198Z,51.4
2023-05-20T15:41:40.489Z,53
2023-05-20T15:46:35.369Z,53.8
2023-05-20T15:51:31.803Z,51.9
2023-05-20T15:57:42.504Z,52.6
2023-05-20T16:02:39.110Z,53.4
2023-05-20T16:07:35.555Z,56.1
2023-05-20T16:12:32.194Z,56.1
2023-05-20T16:18:42.815Z,55.3
2023-05-20T16:23:39.312Z,56.8
2023-05-20T16:28:35.887Z,54.6
2023-05-20T16:33:32.502Z,52.4
2023-05-20T16:38:28.926Z,56.1
2023-05-20T16:44:39.673Z,57.7
2023-05-20T16:49:36.090Z,57.1
2023-05-20T16:54:32.696Z,56.7
2023-05-20T16:59:29.188Z,57.7
2023-05-20T17:05:39.850Z,53
2023-05-20T17:10:36.459Z,53.5
2023-05-20T17:15:33.150Z,57.2
2023-05-20T17:20:29.403Z,60.2
2023-05-20T17:26:40.134Z,64.6
2023-05-20T17:31:36.642Z,64
2023-05-20T17:36:33.141Z,64
2023-05-20T17:41:29.756Z,63.7
2023-05-20T17:47:40.362Z,60.7
2023-05-20T17:52:37.013Z,61.1
2023-05-20T17:57:33.423Z,62.1
2023-05-20T18:08:40.654Z,64.6
2023-05-20T18:13:37.256Z,66.5
2023-05-20T18:18:33.787Z,68.7
2023-05-20T18:23:30.209Z,69.6
2023-05-20T18:29:40.974Z,70.1
2023-05-20T18:34:38.491Z,73.9
2023-05-20T18:39:33.956Z,73
2023-05-20T18:44:30.488Z,74.5
2023-05-20T18:49:27.002Z,74.8
2023-05-20T18:50:41.242Z,78
2023-05-20T18:55:37.688Z,80.3
2023-05-20T19:00:34.449Z,84.3
2023-05-20T19:05:30.699Z,89.6
2023-05-20T19:11:41.368Z,90.3
2023-05-20T19:16:37.937Z,95.9
2023-05-20T19:21:34.501Z,98.6
2023-05-20T19:32:41.765Z,100
2023-05-20T19:37:38.277Z,100
2023-05-20T19:42:34.719Z,100
2023-05-20T19:47:31.373Z,100
2023-05-20T19:53:42.100Z,100
2023-05-20T19:58:38.473Z,100
2023-05-20T20:03:34.997Z,100
2023-05-20T20:08:31.541Z,100
2023-05-20T20:14:42.245Z,100
2023-05-20T20:19:38.827Z,100
2023-05-20T20:24:35.241Z,100
2023-05-20T20:29:31.792Z,100
2023-05-20T20:35:42.573Z,100
2023-05-20T20:39:33.154Z,100
2023-05-20T20:44:29.593Z,100
2023-05-20T20:50:40.240Z,100
2023-05-20T21:00:33.413Z,100
2023-05-20T21:05:29.961Z,100
2023-05-20T21:11:40.523Z,100
2023-05-20T21:16:37.111Z,100
2023-05-20T21:21:33.716Z,100
2023-05-20T21:26:30.163Z,100
2023-05-20T21:32:40.814Z,100
2023-05-20T21:37:37.448Z,100
2023-05-20T21:42:33.959Z,100
2023-05-20T21:47:30.408Z,100
2023-05-20T21:53:41.030Z,100
2023-05-20T21:58:37.660Z,100
2023-05-20T22:03:34.234Z,100
2023-05-20T22:08:30.714Z,100
2023-05-20T22:14:41.423Z,100
2023-05-20T22:19:37.905Z,100
2023-05-20T22:24:34.421Z,100
2023-05-20T22:29:30.964Z,100
2023-05-20T22:35:41.553Z,100
2023-05-20T22:40:38.097Z,100
2023-05-20T22:45:34.983Z,100
2023-05-20T22:50:31.164Z,100
2023-05-20T22:56:41.858Z,100
2023-05-20T23:01:38.496Z,100
2023-05-20T23:06:34.917Z,100
2023-05-20T23:11:31.440Z,100
2023-05-20T23:17:42.160Z,100
2023-05-20T23:22:39.017Z,100
2023-05-20T23:27:35.139Z,100
2023-05-20T23:32:31.804Z,100
2023-05-20T23:38:42.394Z,100
2023-05-20T23:43:38.957Z,100
2023-05-20T23:44:53.113Z,100
2023-05-20T23:48:35.457Z,100
2023-05-20T23:53:31.981Z,100
2023-05-20T23:58:28.713Z,100
